Time;durP1;ratioP1;P1;durP2;ratioP2;P2;SDS_P1;SDS_P2;PMS_P1;PMS_P2;Temp;Humidity;BMP_temperature;BMP_pressure;BME280_temperature;BME280_humidity;BME280_pressure;Samples;Min_cycle;Max_cycle;Signal;HPM_P1;HPM_P2
2023/12/13 00:02:12;;;;;;;5.13;4.57;;;;;;;;;;4988947;28;98992;-74
2023/12/13 00:04:39;;;;;;;9.45;5.18;;;;;;;;;;4988338;28;99506;-74
2023/12/13 00:07:05;;;;;;;10.25;5.88;;;;;;;;;;4990557;28;98471;-75
2023/12/13 00:09:32;;;;;;;5.88;5.40;;;;;;;;;;4989909;28;99512;-74
2023/12/13 00:11:59;;;;;;;9.60;6.47;;;;;;;;;;4988235;28;98224;-75
2023/12/13 00:14:25;;;;;;;5.95;5.30;;;;;;;;;;4988827;28;99504;-73
2023/12/13 00:16:51;;;;;;;11.43;5.70;;;;;;;;;;4982375;28;98837;-74
2023/12/13 00:19:20;;;;;;;8.02;6.00;;;;;;;;;;4988968;28;99304;-73
2023/12/13 00:21:47;;;;;;;8.48;6.10;;;;;;;;;;4989687;28;99926;-75
2023/12/13 00:24:14;;;;;;;8.75;5.45;;;;;;;;;;4988795;28;98247;-75
2023/12/13 00:26:40;;;;;;;9.73;6.55;;;;;;;;;;4951136;28;99147;-75
2023/12/13 00:29:08;;;;;;;11.13;6.47;;;;;;;;;;4949268;28;100019;-75
2023/12/13 00:31:35;;;;;;;6.38;5.68;;;;;;;;;;4956934;28;98477;-73
2023/12/13 00:34:01;;;;;;;14.75;6.38;;;;;;;;;;4989634;28;99349;-75
2023/12/13 00:36:28;;;;;;;6.00;5.50;;;;;;;;;;4988336;28;99406;-74
2023/12/13 00:38:54;;;;;;;8.77;6.10;;;;;;;;;;4991837;28;98324;-75
2023/12/13 00:41:22;;;;;;;5.50;5.00;;;;;;;;;;4989233;28;99226;-75
2023/12/13 00:43:48;;;;;;;10.98;5.95;;;;;;;;;;4989539;28;98235;-74
2023/12/13 00:46:19;;;;;;;14.77;6.93;;;;;;;;;;4988192;28;98629;-75
2023/12/13 00:48:47;;;;;;;8.70;6.60;;;;;;;;;;4977191;28;100238;-75
2023/12/13 00:51:14;;;;;;;9.77;6.43;;;;;;;;;;4989328;28;98141;-75
2023/12/13 00:53:41;;;;;;;14.95;7.22;;;;;;;;;;4988660;28;98431;-74
2023/12/13 00:56:07;;;;;;;13.15;6.78;;;;;;;;;;4988812;28;100082;-74
2023/12/13 00:58:35;;;;;;;15.98;7.03;;;;;;;;;;4989130;28;98422;-73
2023/12/13 01:01:02;;;;;;;10.02;7.50;;;;;;;;;;4989452;28;98950;-75
2023/12/13 01:03:28;;;;;;;13.20;7.97;;;;;;;;;;4977929;28;98205;-74
2023/12/13 01:05:55;;;;;;;11.10;7.05;;;;;;;;;;4988511;28;98728;-76
2023/12/13 01:08:24;;;;;;;12.13;7.50;;;;;;;;;;4987919;28;100312;-74
2023/12/13 01:10:50;;;;;;;8.15;7.03;;;;;;;;;;4989107;28;98313;-74
2023/12/13 01:13:17;;;;;;;14.00;7.85;;;;;;;;;;4988006;28;98625;-75
2023/12/13 01:15:43;;;;;;;10.48;7.05;;;;;;;;;;4988669;28;100134;-74
2023/12/13 01:18:09;;;;;;;8.45;6.80;;;;;;;;;;4988908;28;98281;-73
2023/12/13 01:20:36;;;;;;;10.52;7.18;;;;;;;;;;4976415;28;99805;-73
2023/12/13 01:23:02;;;;;;;7.97;7.03;;;;;;;;;;4991135;28;98511;-75
2023/12/13 01:25:29;;;;;;;13.63;6.82;;;;;;;;;;4988231;28;100190;-74
2023/12/13 01:27:57;;;;;;;11.65;6.75;;;;;;;;;;4986898;28;100527;-74
2023/12/13 01:30:24;;;;;;;11.18;6.35;;;;;;;;;;4986545;28;99979;-74
2023/12/13 01:32:51;;;;;;;22.08;6.60;;;;;;;;;;4988620;28;99722;-74
2023/12/13 01:35:18;;;;;;;9.18;7.00;;;;;;;;;;4978681;28;100079;-74
2023/12/13 01:37:44;;;;;;;10.45;7.25;;;;;;;;;;4985908;28;98595;-76
2023/12/13 01:40:11;;;;;;;8.55;6.40;;;;;;;;;;4987866;28;98660;-74
2023/12/13 01:42:38;;;;;;;17.83;7.00;;;;;;;;;;4991106;28;100154;-74
2023/12/13 01:45:05;;;;;;;10.48;7.43;;;;;;;;;;4988189;28;98716;-75
2023/12/13 01:47:31;;;;;;;9.18;6.85;;;;;;;;;;4988053;28;100026;-74
2023/12/13 01:49:58;;;;;;;11.07;6.75;;;;;;;;;;4986479;28;98231;-74
2023/12/13 01:52:24;;;;;;;11.77;7.15;;;;;;;;;;4981232;28;99631;-74
2023/12/13 01:54:51;;;;;;;15.77;7.20;;;;;;;;;;4987810;28;100627;-74
2023/12/13 01:57:18;;;;;;;8.15;7.10;;;;;;;;;;4986206;28;98236;-75
2023/12/13 01:59:44;;;;;;;12.82;6.50;;;;;;;;;;4976370;28;99404;-74
2023/12/13 02:02:11;;;;;;;11.80;6.93;;;;;;;;;;4967657;28;100500;-75
2023/12/13 02:04:38;;;;;;;11.57;6.60;;;;;;;;;;4969550;28;98320;-75
2023/12/13 02:07:06;;;;;;;14.18;7.82;;;;;;;;;;4966930;28;99739;-75
2023/12/13 02:09:33;;;;;;;14.85;7.65;;;;;;;;;;4982774;28;98569;-75
2023/12/13 02:11:59;;;;;;;9.27;6.88;;;;;;;;;;4988073;28;99332;-74
2023/12/13 02:14:26;;;;;;;8.88;6.97;;;;;;;;;;4986967;28;99296;-74
2023/12/13 02:16:53;;;;;;;13.70;7.50;;;;;;;;;;4987193;28;98150;-74
2023/12/13 02:19:19;;;;;;;11.70;6.88;;;;;;;;;;4987690;28;99349;-74
2023/12/13 02:21:46;;;;;;;7.95;7.15;;;;;;;;;;4987607;28;98840;-74
2023/12/13 02:24:12;;;;;;;10.88;7.18;;;;;;;;;;4975320;28;98299;-75
2023/12/13 02:26:41;;;;;;;10.95;6.75;;;;;;;;;;4990917;28;99407;-74
2023/12/13 02:29:08;;;;;;;14.38;7.40;;;;;;;;;;4987434;28;97986;-74
2023/12/13 02:31:35;;;;;;;10.20;7.43;;;;;;;;;;4987255;28;98898;-74
2023/12/13 02:34:02;;;;;;;15.60;7.55;;;;;;;;;;4987662;28;98165;-74
2023/12/13 02:36:28;;;;;;;12.75;7.65;;;;;;;;;;4967959;28;98363;-75
2023/12/13 02:38:56;;;;;;;14.15;7.63;;;;;;;;;;4965438;28;98537;-74
2023/12/13 02:41:22;;;;;;;10.73;7.28;;;;;;;;;;4981002;28;98997;-74
2023/12/13 02:43:49;;;;;;;8.70;6.80;;;;;;;;;;4987581;28;98235;-74
2023/12/13 02:46:15;;;;;;;13.90;7.10;;;;;;;;;;4986481;28;99864;-75
2023/12/13 02:48:42;;;;;;;12.77;7.80;;;;;;;;;;4990364;28;99159;-74
2023/12/13 02:51:09;;;;;;;19.45;7.35;;;;;;;;;;4986151;28;99862;-74
2023/12/13 02:53:35;;;;;;;22.52;7.45;;;;;;;;;;4985641;28;100068;-75
2023/12/13 02:56:01;;;;;;;12.25;7.35;;;;;;;;;;4976262;28;98970;-74
2023/12/13 02:58:28;;;;;;;13.75;6.30;;;;;;;;;;4987550;28;98551;-74
2023/12/13 03:00:54;;;;;;;10.63;6.95;;;;;;;;;;4986280;28;99086;-76
2023/12/13 03:03:21;;;;;;;16.17;6.55;;;;;;;;;;4986248;28;98201;-75
2023/12/13 03:05:48;;;;;;;6.45;5.80;;;;;;;;;;4973981;28;99653;-75
2023/12/13 03:08:15;;;;;;;10.65;7.22;;;;;;;;;;4967670;28;99391;-76
2023/12/13 03:10:42;;;;;;;6.90;6.28;;;;;;;;;;4969683;28;98257;-74
2023/12/13 03:13:08;;;;;;;12.30;6.90;;;;;;;;;;4978073;28;99938;-75
2023/12/13 03:15:35;;;;;;;9.07;6.43;;;;;;;;;;4987188;28;98226;-74
2023/12/13 03:18:02;;;;;;;12.60;7.05;;;;;;;;;;4987519;28;98591;-74
2023/12/13 03:20:30;;;;;;;9.40;6.43;;;;;;;;;;4985800;28;100441;-74
2023/12/13 03:22:56;;;;;;;8.18;6.65;;;;;;;;;;4949139;28;98289;-75
2023/12/13 03:25:23;;;;;;;8.55;6.05;;;;;;;;;;4947439;28;98588;-74
2023/12/13 03:27:51;;;;;;;11.40;7.20;;;;;;;;;;4958673;28;100853;-74
2023/12/13 03:30:17;;;;;;;8.65;6.63;;;;;;;;;;4990371;28;98276;-74
2023/12/13 03:32:44;;;;;;;9.05;7.03;;;;;;;;;;4986835;28;100170;-74
2023/12/13 03:35:14;;;;;;;11.90;7.18;;;;;;;;;;4986150;28;98195;-74
2023/12/13 03:37:40;;;;;;;6.95;6.28;;;;;;;;;;4986875;28;98643;-74
2023/12/13 03:40:07;;;;;;;10.88;6.60;;;;;;;;;;4986508;28;100176;-75
2023/12/13 03:42:34;;;;;;;9.20;6.63;;;;;;;;;;4983865;28;99023;-75
2023/12/13 03:45:00;;;;;;;12.80;7.57;;;;;;;;;;4984319;28;98376;-74
2023/12/13 03:47:27;;;;;;;14.15;8.00;;;;;;;;;;4986053;28;100027;-73
2023/12/13 03:49:54;;;;;;;12.95;7.82;;;;;;;;;;4984145;28;98282;-74
2023/12/13 03:52:20;;;;;;;11.30;7.88;;;;;;;;;;4988876;28;99507;-75
2023/12/13 03:54:47;;;;;;;9.82;7.93;;;;;;;;;;4986682;28;98155;-74
2023/12/13 03:57:13;;;;;;;9.40;7.20;;;;;;;;;;4985913;28;99331;-74
2023/12/13 03:59:39;;;;;;;10.40;7.65;;;;;;;;;;4980130;28;99544;-74
2023/12/13 04:02:06;;;;;;;12.82;7.90;;;;;;;;;;4985459;28;98228;-74
2023/12/13 04:04:35;;;;;;;9.63;7.93;;;;;;;;;;4988606;28;98529;-74
2023/12/13 04:07:02;;;;;;;14.80;7.65;;;;;;;;;;4989749;28;99757;-74
2023/12/13 04:09:28;;;;;;;12.05;8.07;;;;;;;;;;4989684;28;98302;-74
2023/12/13 04:11:55;;;;;;;12.52;8.65;;;;;;;;;;4989929;28;98949;-75
2023/12/13 04:14:21;;;;;;;19.52;8.43;;;;;;;;;;4992746;28;98952;-75
2023/12/13 04:16:48;;;;;;;16.90;9.02;;;;;;;;;;4983054;28;99577;-75
2023/12/13 04:19:15;;;;;;;13.35;8.90;;;;;;;;;;4988332;28;100003;-75
2023/12/13 04:21:41;;;;;;;13.45;8.40;;;;;;;;;;4972138;28;98269;-74
2023/12/13 04:24:08;;;;;;;21.33;8.65;;;;;;;;;;4988964;28;98773;-75
2023/12/13 04:26:34;;;;;;;14.75;8.80;;;;;;;;;;4989616;28;100584;-74
2023/12/13 04:29:01;;;;;;;13.80;9.00;;;;;;;;;;4989520;28;98196;-74
2023/12/13 04:31:27;;;;;;;23.42;9.85;;;;;;;;;;4978071;28;99790;-74
2023/12/13 04:33:54;;;;;;;11.90;9.10;;;;;;;;;;4988691;28;99960;-75
2023/12/13 04:36:20;;;;;;;15.60;9.45;;;;;;;;;;4992735;28;98260;-75
2023/12/13 04:38:46;;;;;;;21.25;10.35;;;;;;;;;;4988571;28;99592;-75
2023/12/13 04:41:13;;;;;;;11.73;8.77;;;;;;;;;;4987909;28;98230;-74
2023/12/13 04:43:39;;;;;;;12.35;10.05;;;;;;;;;;4989394;28;99520;-74
2023/12/13 04:46:06;;;;;;;15.13;9.52;;;;;;;;;;4988645;28;99015;-73
2023/12/13 04:48:32;;;;;;;17.08;9.15;;;;;;;;;;4977682;28;98273;-75
2023/12/13 04:50:59;;;;;;;16.73;9.85;;;;;;;;;;4989437;28;99341;-75
2023/12/13 04:53:25;;;;;;;16.80;9.45;;;;;;;;;;4987711;28;99261;-74
2023/12/13 04:55:52;;;;;;;12.30;9.52;;;;;;;;;;4989277;28;98158;-75
2023/12/13 04:58:19;;;;;;;11.82;9.07;;;;;;;;;;4991688;28;99811;-75
2023/12/13 05:00:47;;;;;;;18.25;10.48;;;;;;;;;;4989290;28;98244;-74
2023/12/13 05:03:14;;;;;;;19.45;10.25;;;;;;;;;;4981067;28;99982;-74
2023/12/13 05:05:41;;;;;;;19.65;9.93;;;;;;;;;;4984525;28;99309;-74
2023/12/13 05:08:12;;;;;;;15.85;9.95;;;;;;;;;;4987776;28;98164;-74
2023/12/13 05:10:43;;;;;;;14.93;10.15;;;;;;;;;;4988975;28;99593;-75
2023/12/13 05:13:10;;;;;;;12.23;10.30;;;;;;;;;;4987856;28;100396;-74
2023/12/13 05:15:36;;;;;;;18.83;10.98;;;;;;;;;;4987315;28;98240;-74
2023/12/13 05:18:03;;;;;;;20.55;11.60;;;;;;;;;;4988953;28;99490;-74
2023/12/13 05:20:29;;;;;;;19.27;10.75;;;;;;;;;;4979835;28;98815;-75
2023/12/13 05:22:56;;;;;;;15.63;10.20;;;;;;;;;;4989514;28;98768;-74
2023/12/13 05:25:22;;;;;;;17.67;10.45;;;;;;;;;;4988270;28;99959;-74
2023/12/13 05:27:49;;;;;;;19.00;11.18;;;;;;;;;;4988081;28;98590;-74
2023/12/13 05:30:17;;;;;;;20.88;10.93;;;;;;;;;;4987696;28;99481;-74
2023/12/13 05:32:47;;;;;;;15.75;11.20;;;;;;;;;;4988739;28;99052;-73
2023/12/13 05:35:13;;;;;;;16.95;11.23;;;;;;;;;;4979705;28;99009;-74
2023/12/13 05:37:40;;;;;;;21.08;11.30;;;;;;;;;;4985160;28;99438;-75
2023/12/13 05:40:07;;;;;;;16.52;11.52;;;;;;;;;;4991547;28;99820;-75
2023/12/13 05:42:33;;;;;;;19.95;11.60;;;;;;;;;;4987736;28;99576;-75
2023/12/13 05:45:00;;;;;;;27.08;11.43;;;;;;;;;;4987125;28;100050;-75
2023/12/13 05:47:27;;;;;;;19.25;11.52;;;;;;;;;;4988277;28;98314;-74
2023/12/13 05:49:56;;;;;;;16.15;11.25;;;;;;;;;;4987445;28;99887;-75
2023/12/13 05:52:25;;;;;;;22.00;11.57;;;;;;;;;;4976410;28;98890;-75
2023/12/13 05:54:51;;;;;;;16.50;11.70;;;;;;;;;;4986829;28;98366;-74
2023/12/13 05:57:17;;;;;;;19.65;12.45;;;;;;;;;;4987954;28;99582;-74
2023/12/13 05:59:44;;;;;;;26.33;12.27;;;;;;;;;;4968785;28;100422;-74
2023/12/13 06:02:10;;;;;;;21.75;10.50;;;;;;;;;;4951210;28;99030;-74
2023/12/13 06:04:39;;;;;;;26.98;12.43;;;;;;;;;;4948449;28;100200;-73
2023/12/13 06:07:06;;;;;;;18.17;10.90;;;;;;;;;;4954314;28;98295;-73
2023/12/13 06:09:33;;;;;;;19.83;11.88;;;;;;;;;;4982857;28;101456;-75
2023/12/13 06:11:59;;;;;;;23.25;11.57;;;;;;;;;;4988145;28;100549;-73
2023/12/13 06:14:29;;;;;;;15.82;10.88;;;;;;;;;;4986709;28;98783;-74
2023/12/13 06:16:55;;;;;;;19.83;10.75;;;;;;;;;;4987823;28;99267;-75
2023/12/13 06:19:24;;;;;;;21.92;11.80;;;;;;;;;;4987663;28;98994;-74
2023/12/13 06:21:51;;;;;;;18.95;11.20;;;;;;;;;;4989370;28;98462;-75
2023/12/13 06:24:22;;;;;;;24.13;12.75;;;;;;;;;;4973767;28;98875;-75
2023/12/13 06:26:49;;;;;;;15.88;10.75;;;;;;;;;;4968252;28;98245;-74
2023/12/13 06:29:15;;;;;;;22.48;11.45;;;;;;;;;;4967535;28;99448;-74
2023/12/13 06:31:42;;;;;;;31.63;12.07;;;;;;;;;;4977531;28;99076;-74
2023/12/13 06:34:09;;;;;;;20.35;11.85;;;;;;;;;;4987936;28;99062;-74
2023/12/13 06:36:36;;;;;;;20.33;11.40;;;;;;;;;;4988069;28;99360;-75
2023/12/13 06:39:04;;;;;;;21.92;11.10;;;;;;;;;;4980379;28;100051;-74
2023/12/13 06:41:31;;;;;;;22.85;11.45;;;;;;;;;;4983100;28;98783;-75
2023/12/13 06:43:57;;;;;;;22.42;10.73;;;;;;;;;;4984817;28;99140;-75
2023/12/13 06:46:24;;;;;;;24.15;11.38;;;;;;;;;;4990531;28;98922;-74
2023/12/13 06:48:51;;;;;;;14.50;10.90;;;;;;;;;;4987413;28;99479;-74
2023/12/13 06:51:19;;;;;;;14.93;10.23;;;;;;;;;;4986431;28;99111;-74
2023/12/13 06:53:46;;;;;;;23.35;11.18;;;;;;;;;;4987461;28;98257;-74
2023/12/13 06:56:12;;;;;;;20.73;11.63;;;;;;;;;;4984709;28;99627;-74
2023/12/13 06:58:39;;;;;;;15.57;10.20;;;;;;;;;;4986755;28;100460;-75
2023/12/13 07:01:05;;;;;;;23.40;11.48;;;;;;;;;;4982073;28;98876;-74
2023/12/13 07:03:32;;;;;;;26.50;12.30;;;;;;;;;;4987395;28;98113;-74
2023/12/13 07:05:59;;;;;;;21.83;11.45;;;;;;;;;;4986580;28;99093;-74
2023/12/13 07:08:25;;;;;;;18.30;11.05;;;;;;;;;;4989533;28;98177;-75
2023/12/13 07:10:52;;;;;;;24.08;11.48;;;;;;;;;;4973703;28;99863;-74
2023/12/13 07:13:18;;;;;;;22.65;11.88;;;;;;;;;;4984273;28;98180;-75
2023/12/13 07:15:45;;;;;;;27.50;12.00;;;;;;;;;;4987027;28;99374;-75
2023/12/13 07:18:11;;;;;;;21.88;11.07;;;;;;;;;;4970992;28;98915;-74
2023/12/13 07:20:38;;;;;;;15.82;10.52;;;;;;;;;;4986444;28;98267;-74
2023/12/13 07:23:07;;;;;;;26.17;12.40;;;;;;;;;;4986859;28;100097;-74
2023/12/13 07:25:34;;;;;;;21.27;10.68;;;;;;;;;;4987631;28;99135;-75
2023/12/13 07:28:00;;;;;;;19.73;11.43;;;;;;;;;;4986590;28;98611;-75
2023/12/13 07:30:27;;;;;;;17.33;10.95;;;;;;;;;;4984754;28;99299;-75
2023/12/13 07:32:53;;;;;;;27.23;12.25;;;;;;;;;;4973127;28;98257;-75
2023/12/13 07:35:20;;;;;;;19.55;10.63;;;;;;;;;;4975239;28;99787;-73
2023/12/13 07:37:47;;;;;;;22.92;11.40;;;;;;;;;;4976675;28;100266;-74
2023/12/13 07:40:13;;;;;;;19.60;11.02;;;;;;;;;;4963938;28;98277;-74
2023/12/13 07:42:41;;;;;;;23.05;11.32;;;;;;;;;;4977601;28;99455;-73
2023/12/13 07:45:10;;;;;;;23.08;11.20;;;;;;;;;;4988892;28;100178;-74
2023/12/13 07:47:37;;;;;;;21.15;12.38;;;;;;;;;;4970784;28;98504;-74
2023/12/13 07:50:04;;;;;;;20.27;12.32;;;;;;;;;;4979653;28;98924;-74
2023/12/13 07:52:30;;;;;;;22.45;11.32;;;;;;;;;;4967763;28;98423;-74
2023/12/13 07:54:57;;;;;;;28.45;12.40;;;;;;;;;;4970198;28;98529;-74
2023/12/13 07:57:24;;;;;;;37.65;13.57;;;;;;;;;;4982956;28;99877;-75
2023/12/13 07:59:50;;;;;;;26.02;12.75;;;;;;;;;;4969668;28;98758;-75
2023/12/13 08:02:20;;;;;;;27.70;12.60;;;;;;;;;;4949810;28;98499;-73
2023/12/13 08:04:48;;;;;;;29.10;11.40;;;;;;;;;;4950344;28;99976;-73
2023/12/13 08:07:15;;;;;;;23.20;11.88;;;;;;;;;;4964577;28;98264;-73
2023/12/13 08:09:43;;;;;;;29.92;13.38;;;;;;;;;;4989077;28;99396;-74
2023/12/13 08:12:09;;;;;;;28.33;11.88;;;;;;;;;;4992723;28;100258;-75
2023/12/13 08:14:37;;;;;;;17.55;9.48;;;;;;;;;;4974611;28;99585;-75
2023/12/13 08:17:08;;;;;;;20.42;12.68;;;;;;;;;;4968921;28;99930;-74
2023/12/13 08:19:35;;;;;;;24.90;12.85;;;;;;;;;;4969965;28;98319;-74
2023/12/13 08:22:03;;;;;;;33.88;14.15;;;;;;;;;;4968349;28;98870;-74
2023/12/13 08:24:29;;;;;;;20.80;11.00;;;;;;;;;;4967555;28;99104;-75
2023/12/13 08:26:56;;;;;;;26.40;13.15;;;;;;;;;;4994767;28;98220;-73
2023/12/13 08:29:22;;;;;;;21.92;11.85;;;;;;;;;;4973043;28;98728;-73
2023/12/13 08:31:49;;;;;;;26.25;11.90;;;;;;;;;;4971740;28;100099;-74
2023/12/13 08:34:15;;;;;;;25.13;10.90;;;;;;;;;;4972171;28;99040;-74
2023/12/13 08:36:42;;;;;;;18.63;11.00;;;;;;;;;;4967611;28;99005;-74
2023/12/13 08:39:09;;;;;;;26.85;11.38;;;;;;;;;;4969626;28;99062;-74
2023/12/13 08:41:36;;;;;;;27.67;10.90;;;;;;;;;;4966288;28;98491;-74
2023/12/13 08:44:03;;;;;;;19.25;10.90;;;;;;;;;;4967607;28;99091;-73
2023/12/13 08:46:29;;;;;;;24.13;10.25;;;;;;;;;;4965967;28;99225;-75
2023/12/13 08:48:56;;;;;;;19.08;10.50;;;;;;;;;;4969764;28;99270;-74
2023/12/13 08:51:23;;;;;;;26.25;11.32;;;;;;;;;;4966774;28;99931;-74
2023/12/13 08:53:54;;;;;;;18.02;10.95;;;;;;;;;;4964971;28;98788;-73
2023/12/13 08:56:20;;;;;;;26.42;11.02;;;;;;;;;;4967606;28;98584;-73
2023/12/13 08:58:47;;;;;;;19.05;10.43;;;;;;;;;;4968259;28;98285;-74
2023/12/13 09:01:14;;;;;;;18.65;11.55;;;;;;;;;;4969259;28;98732;-74
2023/12/13 09:03:41;;;;;;;26.27;11.40;;;;;;;;;;4969108;28;100077;-72
2023/12/13 09:06:08;;;;;;;38.80;11.25;;;;;;;;;;4967757;28;98302;-75
2023/12/13 09:08:35;;;;;;;25.30;11.13;;;;;;;;;;4968563;28;99553;-75
2023/12/13 09:11:02;;;;;;;18.77;11.30;;;;;;;;;;4968109;28;99908;-74
2023/12/13 09:13:29;;;;;;;33.53;11.77;;;;;;;;;;4967931;28;98293;-73
2023/12/13 09:15:55;;;;;;;27.35;11.85;;;;;;;;;;4968818;28;99335;-74
2023/12/13 09:18:21;;;;;;;17.42;10.73;;;;;;;;;;4971688;28;98865;-74
2023/12/13 09:20:48;;;;;;;21.13;10.55;;;;;;;;;;4967993;28;99570;-74
2023/12/13 09:23:24;;;;;;;19.25;10.35;;;;;;;;;;4968198;28;99981;-74
2023/12/13 09:25:51;;;;;;;17.42;10.23;;;;;;;;;;4968001;28;98551;-74
2023/12/13 09:28:18;;;;;;;19.67;10.05;;;;;;;;;;4968760;28;100432;-74
2023/12/13 09:30:44;;;;;;;31.05;10.30;;;;;;;;;;4969020;28;99853;-75
2023/12/13 09:33:11;;;;;;;24.63;10.35;;;;;;;;;;4967543;28;98310;-73
2023/12/13 09:35:38;;;;;;;30.30;10.23;;;;;;;;;;4967691;28;99622;-74
2023/12/13 09:38:04;;;;;;;27.92;10.27;;;;;;;;;;4968079;28;100051;-74
2023/12/13 09:40:32;;;;;;;24.23;10.35;;;;;;;;;;4971435;28;98124;-74
2023/12/13 09:43:00;;;;;;;21.55;10.05;;;;;;;;;;4968248;28;99234;-73
2023/12/13 09:45:28;;;;;;;19.42;10.05;;;;;;;;;;4968200;28;98230;-72
2023/12/13 09:47:55;;;;;;;19.63;9.63;;;;;;;;;;4968019;28;99118;-74
2023/12/13 09:50:23;;;;;;;19.95;9.68;;;;;;;;;;4967539;28;100118;-73
2023/12/13 09:52:50;;;;;;;18.10;8.95;;;;;;;;;;4968540;28;98224;-74
2023/12/13 09:55:17;;;;;;;17.63;9.30;;;;;;;;;;4968049;28;98710;-73
2023/12/13 09:57:45;;;;;;;17.60;9.85;;;;;;;;;;4951994;28;98882;-75
2023/12/13 10:00:12;;;;;;;20.17;9.55;;;;;;;;;;4951245;28;98806;-74
2023/12/13 10:02:39;;;;;;;16.02;10.32;;;;;;;;;;4948179;28;99133;-74
2023/12/13 10:05:08;;;;;;;16.90;10.57;;;;;;;;;;4948334;28;98602;-74
2023/12/13 10:07:35;;;;;;;16.92;9.23;;;;;;;;;;4948496;28;100003;-74
2023/12/13 10:10:03;;;;;;;18.55;9.23;;;;;;;;;;4947568;28;100095;-74
2023/12/13 10:12:29;;;;;;;15.90;9.18;;;;;;;;;;4949132;28;98834;-74
2023/12/13 10:14:56;;;;;;;13.18;8.55;;;;;;;;;;4947683;28;100364;-74
2023/12/13 10:17:22;;;;;;;16.88;8.85;;;;;;;;;;4948168;28;99955;-73
2023/12/13 10:19:49;;;;;;;19.10;8.55;;;;;;;;;;4948309;28;98321;-74
2023/12/13 10:22:16;;;;;;;15.93;7.90;;;;;;;;;;4951361;28;99788;-76
2023/12/13 10:24:43;;;;;;;11.57;7.68;;;;;;;;;;4947881;28;98338;-76
2023/12/13 10:27:11;;;;;;;16.38;8.57;;;;;;;;;;4956592;28;100179;-77
2023/12/13 10:29:37;;;;;;;23.55;9.05;;;;;;;;;;4946617;28;100032;-76
2023/12/13 10:32:04;;;;;;;18.17;8.57;;;;;;;;;;4956259;28;98369;-76
2023/12/13 10:34:31;;;;;;;15.18;9.20;;;;;;;;;;4967842;28;99609;-75
2023/12/13 10:36:57;;;;;;;16.23;9.75;;;;;;;;;;4951659;28;100016;-77
2023/12/13 10:39:24;;;;;;;21.65;8.93;;;;;;;;;;4948031;28;98999;-75
2023/12/13 10:41:55;;;;;;;14.75;8.70;;;;;;;;;;4948572;28;98634;-74
2023/12/13 10:44:22;;;;;;;17.15;9.63;;;;;;;;;;4950118;28;100332;-74
2023/12/13 10:46:56;;;;;;;18.00;9.05;;;;;;;;;;4948070;28;98878;-74
2023/12/13 10:49:23;;;;;;;16.48;8.77;;;;;;;;;;4964135;28;99939;-74
2023/12/13 10:51:50;;;;;;;12.68;8.50;;;;;;;;;;4966621;28;98673;-75
2023/12/13 10:54:17;;;;;;;16.95;9.15;;;;;;;;;;4967083;28;98592;-75
2023/12/13 10:56:45;;;;;;;20.08;8.90;;;;;;;;;;4967335;28;99957;-74
2023/12/13 10:59:12;;;;;;;18.55;9.50;;;;;;;;;;4966383;28;98323;-75
2023/12/13 11:01:41;;;;;;;11.88;8.35;;;;;;;;;;4950891;28;98997;-74
2023/12/13 11:04:16;;;;;;;25.30;9.40;;;;;;;;;;4946576;28;99960;-75
2023/12/13 11:06:46;;;;;;;;;;;;;;;;;;4951598;28;98224;-75
2023/12/13 11:09:17;;;;;;;14.73;9.10;;;;;;;;;;4946316;28;128039;-75
2023/12/13 11:11:44;;;;;;;20.98;10.02;;;;;;;;;;4947168;28;98089;-74
2023/12/13 11:14:11;;;;;;;14.90;9.50;;;;;;;;;;4946078;28;99781;-74
2023/12/13 11:16:39;;;;;;;19.63;10.43;;;;;;;;;;4947884;28;98880;-74
2023/12/13 11:19:09;;;;;;;16.92;9.65;;;;;;;;;;4945999;28;98285;-75
2023/12/13 11:21:38;;;;;;;19.80;11.15;;;;;;;;;;4946551;28;99409;-74
2023/12/13 11:24:14;;;;;;;15.65;10.45;;;;;;;;;;4946250;28;100016;-76
2023/12/13 11:26:42;;;;;;;17.92;10.68;;;;;;;;;;4962304;28;98337;-77
2023/12/13 11:29:12;;;;;;;17.52;10.38;;;;;;;;;;4957533;28;99576;-75
2023/12/13 11:31:47;;;;;;;17.80;11.75;;;;;;;;;;4947460;28;98257;-75
2023/12/13 11:34:14;;;;;;;13.07;9.57;;;;;;;;;;4948627;28;99940;-75
2023/12/13 11:36:42;;;;;;;15.50;10.38;;;;;;;;;;4966818;28;98954;-74
2023/12/13 11:39:08;;;;;;;17.70;9.98;;;;;;;;;;4957730;28;98719;-74
2023/12/13 11:41:38;;;;;;;14.68;9.65;;;;;;;;;;4947032;28;99827;-75
2023/12/13 11:44:05;;;;;;;18.40;10.52;;;;;;;;;;4946939;28;99017;-74
2023/12/13 11:46:32;;;;;;;16.60;10.15;;;;;;;;;;4946324;28;98492;-75
2023/12/13 11:48:58;;;;;;;15.63;10.63;;;;;;;;;;4946885;28;98883;-75
2023/12/13 11:51:25;;;;;;;12.68;9.85;;;;;;;;;;4949948;28;98293;-75
2023/12/13 11:53:52;;;;;;;20.05;10.23;;;;;;;;;;4965533;28;99829;-74
2023/12/13 11:56:21;;;;;;;19.10;10.50;;;;;;;;;;4966155;28;100064;-74
2023/12/13 11:58:49;;;;;;;17.08;9.65;;;;;;;;;;4966466;28;98242;-75
2023/12/13 12:01:17;;;;;;;18.20;10.68;;;;;;;;;;4965575;28;99565;-74
2023/12/13 12:03:44;;;;;;;14.60;9.70;;;;;;;;;;4965900;28;99274;-74
2023/12/13 12:06:14;;;;;;;16.23;10.15;;;;;;;;;;4966153;28;98231;-73
2023/12/13 12:08:41;;;;;;;14.93;9.25;;;;;;;;;;4965920;28;98365;-75
2023/12/13 12:11:08;;;;;;;14.90;9.27;;;;;;;;;;4952105;28;100335;-73
2023/12/13 12:13:35;;;;;;;19.45;10.13;;;;;;;;;;4947032;28;98838;-74
2023/12/13 12:16:02;;;;;;;13.63;9.63;;;;;;;;;;4946659;28;98868;-75
2023/12/13 12:18:29;;;;;;;11.95;9.20;;;;;;;;;;4947716;28;98253;-75
2023/12/13 12:20:56;;;;;;;16.67;9.95;;;;;;;;;;4947758;28;99197;-73
2023/12/13 12:23:22;;;;;;;15.63;9.25;;;;;;;;;;4945546;28;99900;-72
2023/12/13 12:25:51;;;;;;;13.65;9.73;;;;;;;;;;4956643;28;98368;-74
2023/12/13 12:28:18;;;;;;;16.65;10.15;;;;;;;;;;4979835;28;99754;-74
2023/12/13 12:30:46;;;;;;;10.90;9.20;;;;;;;;;;4949047;28;100243;-74
2023/12/13 12:33:13;;;;;;;12.90;9.77;;;;;;;;;;4953049;28;98160;-74
2023/12/13 12:35:41;;;;;;;13.90;9.88;;;;;;;;;;4958325;28;99372;-73
2023/12/13 12:38:09;;;;;;;14.35;10.25;;;;;;;;;;4949748;28;98296;-74
2023/12/13 12:40:36;;;;;;;14.10;10.25;;;;;;;;;;4957991;28;99707;-75
2023/12/13 12:43:02;;;;;;;15.93;10.77;;;;;;;;;;4968094;28;101420;-75
2023/12/13 12:45:29;;;;;;;20.98;11.35;;;;;;;;;;4955122;28;98210;-73
2023/12/13 12:47:55;;;;;;;15.52;10.00;;;;;;;;;;4949783;28;99699;-75
2023/12/13 12:50:22;;;;;;;16.60;10.90;;;;;;;;;;4948264;28;99456;-74
2023/12/13 12:52:48;;;;;;;19.40;10.35;;;;;;;;;;4947541;28;98326;-74
2023/12/13 12:55:15;;;;;;;17.50;10.98;;;;;;;;;;4952030;28;99646;-73
2023/12/13 12:57:41;;;;;;;15.60;9.63;;;;;;;;;;4949039;28;98710;-74
2023/12/13 13:00:08;;;;;;;16.33;10.43;;;;;;;;;;4949327;28;99141;-74
2023/12/13 13:02:34;;;;;;;14.55;9.48;;;;;;;;;;4949255;28;100362;-74
2023/12/13 13:05:01;;;;;;;19.02;10.25;;;;;;;;;;4948748;28;98357;-73
2023/12/13 13:07:30;;;;;;;12.05;10.05;;;;;;;;;;4966969;28;100149;-73
2023/12/13 13:09:59;;;;;;;16.60;11.32;;;;;;;;;;4966399;28;99491;-74
2023/12/13 13:12:25;;;;;;;14.40;11.90;;;;;;;;;;4948844;28;98404;-74
2023/12/13 13:14:52;;;;;;;15.77;11.00;;;;;;;;;;4950195;28;99662;-75
2023/12/13 13:17:21;;;;;;;14.32;9.73;;;;;;;;;;4982397;28;100031;-75
2023/12/13 13:19:48;;;;;;;16.85;11.15;;;;;;;;;;4947410;28;99108;-74
2023/12/13 13:22:14;;;;;;;18.25;11.15;;;;;;;;;;4949637;28;99780;-74
2023/12/13 13:24:51;;;;;;;18.67;10.23;;;;;;;;;;4952535;28;98975;-74
2023/12/13 13:27:17;;;;;;;16.48;10.05;;;;;;;;;;4950802;28;99616;-73
2023/12/13 13:29:54;;;;;;;15.98;10.23;;;;;;;;;;4948902;28;99689;-75
2023/12/13 13:32:21;;;;;;;12.32;10.02;;;;;;;;;;4948117;28;98329;-75
2023/12/13 13:34:48;;;;;;;11.43;9.52;;;;;;;;;;4947769;28;100868;-74
2023/12/13 13:37:14;;;;;;;15.48;9.73;;;;;;;;;;4948010;28;100338;-73
2023/12/13 13:39:41;;;;;;;15.30;10.40;;;;;;;;;;4952067;28;98903;-73
2023/12/13 13:42:12;;;;;;;14.38;9.52;;;;;;;;;;4947604;28;98639;-73
2023/12/13 13:44:38;;;;;;;14.88;10.20;;;;;;;;;;4948854;28;98369;-73
2023/12/13 13:47:06;;;;;;;13.52;9.52;;;;;;;;;;4945786;28;99727;-73
2023/12/13 13:49:32;;;;;;;26.00;10.13;;;;;;;;;;4948277;28;99905;-73
2023/12/13 13:51:59;;;;;;;14.52;9.77;;;;;;;;;;4949532;28;98265;-74
2023/12/13 13:54:25;;;;;;;16.63;10.68;;;;;;;;;;4946386;28;100063;-74
2023/12/13 13:56:55;;;;;;;13.25;9.45;;;;;;;;;;4948465;28;101806;-75
2023/12/13 13:59:21;;;;;;;17.20;9.80;;;;;;;;;;4952063;28;98174;-73
2023/12/13 14:01:52;;;;;;;14.27;9.93;;;;;;;;;;4947377;28;100108;-73
2023/12/13 14:04:23;;;;;;;17.90;10.73;;;;;;;;;;4949499;28;98320;-74
2023/12/13 14:06:50;;;;;;;17.85;10.43;;;;;;;;;;4948232;28;98912;-75
2023/12/13 14:09:19;;;;;;;12.65;9.70;;;;;;;;;;4949369;28;99746;-74
2023/12/13 14:11:45;;;;;;;14.07;9.40;;;;;;;;;;4948791;28;98329;-73
2023/12/13 14:14:12;;;;;;;13.98;10.50;;;;;;;;;;4948259;28;98593;-74
2023/12/13 14:16:40;;;;;;;15.15;9.82;;;;;;;;;;4948302;28;100356;-74
2023/12/13 14:19:06;;;;;;;15.10;9.75;;;;;;;;;;4948107;28;98448;-74
2023/12/13 14:21:33;;;;;;;20.55;10.75;;;;;;;;;;4950742;28;99638;-74
2023/12/13 14:24:00;;;;;;;12.25;9.85;;;;;;;;;;4948813;28;98370;-74